createdAt,value
2017-08-16T00:00:32.748Z,94592.16
2017-08-16T00:03:00.583Z,94589.67
2017-08-16T00:05:28.341Z,94596.23
2017-08-16T00:07:56.142Z,94593.57
2017-08-16T00:10:23.834Z,94598.16
2017-08-16T00:12:51.761Z,94590.55
2017-08-16T00:15:19.619Z,94591.81
2017-08-16T00:17:47.404Z,94597.14
2017-08-16T00:20:15.195Z,94594.70
2017-08-16T00:22:43.036Z,94592.06
2017-08-16T00:25:10.853Z,94590.50
2017-08-16T00:27:38.688Z,94591.84
2017-08-16T00:30:07.377Z,94592.08
2017-08-16T00:32:35.213Z,94589.05
2017-08-16T00:35:03.007Z,94588.58
2017-08-16T00:37:30.855Z,94586.04
2017-08-16T00:39:58.702Z,94588.06
2017-08-16T00:42:26.436Z,94585.12
2017-08-16T00:44:55.510Z,94581.74
2017-08-16T00:47:23.325Z,94587.67
2017-08-16T00:49:51.213Z,94583.38
2017-08-16T00:52:19.012Z,94592.41
2017-08-16T00:54:46.909Z,94582.87
2017-08-16T00:57:14.752Z,94585.45
2017-08-16T00:59:42.469Z,94585.34
2017-08-16T01:02:10.261Z,94594.64
2017-08-16T01:04:38.014Z,94591.98
2017-08-16T01:07:05.723Z,94588.41
2017-08-16T01:09:33.443Z,94596.63
2017-08-16T01:12:01.325Z,94593.48
2017-08-16T01:14:29.041Z,94595.20
2017-08-16T01:16:56.803Z,94589.00
2017-08-16T01:19:24.545Z,94594.88
2017-08-16T01:21:52.217Z,94594.05
2017-08-16T01:24:20.028Z,94602.03
2017-08-16T01:26:47.814Z,94600.67
2017-08-16T01:29:15.712Z,94605.48
2017-08-16T01:31:43.516Z,94607.41
2017-08-16T01:34:11.368Z,94601.95
2017-08-16T01:36:39.152Z,94596.81
2017-08-16T01:39:07.113Z,94591.17
2017-08-16T01:41:34.907Z,94593.31
2017-08-16T01:44:02.730Z,94593.39
2017-08-16T01:46:30.488Z,94601.91
2017-08-16T01:48:58.265Z,94600.06
2017-08-16T01:51:26.002Z,94605.82
2017-08-16T01:53:53.860Z,94610.23
2017-08-16T01:56:21.697Z,94602.43
2017-08-16T01:58:49.583Z,94602.71
2017-08-16T02:01:17.358Z,94608.86
2017-08-16T02:03:45.159Z,94601.77
2017-08-16T02:06:12.942Z,94604.13
2017-08-16T02:08:40.745Z,94600.05
2017-08-16T02:11:08.456Z,94602.30
2017-08-16T02:13:36.313Z,94598.58
2017-08-16T02:16:04.117Z,94600.45
2017-08-16T02:18:31.992Z,94598.55
2017-08-16T02:20:59.929Z,94600.61
2017-08-16T02:23:27.755Z,94601.84
2017-08-16T02:25:55.609Z,94598.05
2017-08-16T02:28:23.437Z,94597.95
2017-08-16T02:30:51.304Z,94600.41
2017-08-16T02:33:19.251Z,94594.52
2017-08-16T02:35:47.134Z,94595.02
2017-08-16T02:38:15.027Z,94599.80
2017-08-16T02:40:42.947Z,94599.87
2017-08-16T02:43:10.753Z,94607.70
2017-08-16T02:45:38.606Z,94609.01
2017-08-16T02:48:06.429Z,94620.75
2017-08-16T02:50:34.282Z,94627.81
2017-08-16T02:53:02.237Z,94623.81
2017-08-16T02:55:30.103Z,94626.44
2017-08-16T02:57:57.873Z,94626.67
2017-08-16T03:00:25.899Z,94636.53
2017-08-16T03:02:53.766Z,94639.94
2017-08-16T03:05:21.589Z,94634.84
2017-08-16T03:07:49.573Z,94628.11
2017-08-16T03:10:17.437Z,94631.41
2017-08-16T03:12:45.231Z,94640.27
2017-08-16T03:15:13.093Z,94632.44
2017-08-16T03:17:41.073Z,94638.52
2017-08-16T03:20:08.831Z,94650.80
2017-08-16T03:22:37.041Z,94668.30
2017-08-16T03:25:05.081Z,94673.69
2017-08-16T03:27:33.062Z,94680.83
2017-08-16T03:30:00.895Z,94685.20
2017-08-16T03:32:28.714Z,94682.73
2017-08-16T03:34:56.518Z,94687.29
2017-08-16T03:37:24.272Z,94694.86
2017-08-16T03:39:52.159Z,94697.20
2017-08-16T03:42:19.992Z,94703.76
2017-08-16T03:44:48.038Z,94702.09
2017-08-16T03:47:15.951Z,94701.71
2017-08-16T03:49:43.778Z,94713.08
2017-08-16T03:52:11.657Z,94719.80
2017-08-16T03:54:39.588Z,94718.73
2017-08-16T03:57:07.464Z,94722.61
2017-08-16T03:59:35.637Z,94717.77
2017-08-16T04:02:03.518Z,94720.94
2017-08-16T04:04:31.408Z,94725.48
2017-08-16T04:06:59.366Z,94729.14
2017-08-16T04:09:27.209Z,94727.61
2017-08-16T04:11:55.167Z,94722.92
2017-08-16T04:14:23.192Z,94728.11
2017-08-16T04:16:51.067Z,94725.67
2017-08-16T04:19:18.937Z,94726.16
2017-08-16T04:21:47.849Z,94727.80
2017-08-16T04:24:15.714Z,94732.34
2017-08-16T04:26:43.504Z,94733.03
2017-08-16T04:29:11.400Z,94741.64
2017-08-16T04:31:39.159Z,94751.79
2017-08-16T04:34:06.990Z,94750.53
2017-08-16T04:36:34.740Z,94751.55
2017-08-16T04:39:02.595Z,94756.56
2017-08-16T04:41:30.384Z,94751.48
2017-08-16T04:43:58.241Z,94759.14
2017-08-16T04:46:26.101Z,94755.55
2017-08-16T04:48:53.859Z,94761.08
2017-08-16T04:51:21.667Z,94757.43
2017-08-16T04:53:49.401Z,94748.86
2017-08-16T04:56:17.206Z,94757.16
2017-08-16T04:58:45.045Z,94757.08
2017-08-16T05:01:12.810Z,94763.08
2017-08-16T05:03:40.638Z,94769.73
2017-08-16T05:06:08.387Z,94772.98
2017-08-16T05:08:36.758Z,94772.06
2017-08-16T05:11:06.506Z,94770.80
2017-08-16T05:13:34.466Z,94771.80
2017-08-16T05:16:02.310Z,94778.25
2017-08-16T05:18:30.040Z,94772.08
2017-08-16T05:20:57.828Z,94774.36
2017-08-16T05:23:28.707Z,94776.69
2017-08-16T05:25:56.498Z,94776.70
2017-08-16T05:28:25.499Z,94778.95
2017-08-16T05:30:53.288Z,94781.68
2017-08-16T05:33:21.031Z,94780.13
2017-08-16T05:35:48.871Z,94776.36
2017-08-16T05:38:16.751Z,94780.66
2017-08-16T05:40:44.597Z,94780.48
2017-08-16T05:43:12.470Z,94782.75
2017-08-16T05:45:40.270Z,94785.78
2017-08-16T05:48:08.026Z,94791.83
2017-08-16T05:50:35.739Z,94792.30
2017-08-16T05:53:03.455Z,94797.39
2017-08-16T05:55:31.233Z,94797.44
2017-08-16T05:57:59.762Z,94805.83
2017-08-16T06:00:27.522Z,94802.41
2017-08-16T06:02:55.988Z,94804.03
2017-08-16T06:05:23.728Z,94803.59
2017-08-16T06:07:51.558Z,94805.79
2017-08-16T06:10:19.303Z,94808.58
2017-08-16T06:12:47.050Z,94813.86
2017-08-16T06:15:14.820Z,94813.11
2017-08-16T06:17:42.534Z,94809.94
2017-08-16T06:20:10.303Z,94819.39
2017-08-16T06:22:38.030Z,94824.53
2017-08-16T06:25:05.808Z,94825.00
2017-08-16T06:27:33.547Z,94834.75
2017-08-16T06:30:01.261Z,94833.23
2017-08-16T06:32:28.968Z,94834.67
2017-08-16T06:34:56.738Z,94837.13
2017-08-16T06:37:24.471Z,94832.75
2017-08-16T06:39:52.188Z,94840.78
2017-08-16T06:42:20.141Z,94845.97
2017-08-16T06:44:47.937Z,94841.31
2017-08-16T06:47:15.700Z,94844.97
2017-08-16T06:49:43.417Z,94846.69
2017-08-16T06:52:11.191Z,94848.11
2017-08-16T06:54:39.007Z,94845.52
2017-08-16T06:57:06.760Z,94853.39
2017-08-16T06:59:34.462Z,94846.42
2017-08-16T07:02:02.298Z,94847.55
2017-08-16T07:04:30.171Z,94838.73
2017-08-16T07:06:57.942Z,94842.11
2017-08-16T07:09:25.710Z,94848.13
2017-08-16T07:11:53.414Z,94840.41
2017-08-16T07:14:21.184Z,94836.07
2017-08-16T07:16:48.960Z,94829.86
2017-08-16T07:19:16.763Z,94835.63
2017-08-16T07:21:44.528Z,94843.31
2017-08-16T07:24:12.239Z,94838.22
2017-08-16T07:26:40.012Z,94834.59
2017-08-16T07:29:07.866Z,94835.38
2017-08-16T07:31:35.631Z,94842.78
2017-08-16T07:34:03.395Z,94832.23
2017-08-16T07:36:31.197Z,94841.45
2017-08-16T07:38:58.950Z,94836.06
2017-08-16T07:41:26.661Z,94842.36
2017-08-16T07:43:54.449Z,94834.72
2017-08-16T07:46:22.175Z,94840.47
2017-08-16T07:48:50.782Z,94834.76
2017-08-16T07:51:18.491Z,94837.78
2017-08-16T07:53:46.315Z,94838.55
2017-08-16T07:56:14.096Z,94840.43
2017-08-16T07:58:41.843Z,94842.49
2017-08-16T08:01:09.598Z,94832.45
2017-08-16T08:03:37.374Z,94834.77
2017-08-16T08:06:05.176Z,94836.71
2017-08-16T08:08:32.932Z,94835.79
2017-08-16T08:11:00.701Z,94832.08
2017-08-16T08:13:28.408Z,94837.48
2017-08-16T08:15:56.198Z,94839.72
2017-08-16T08:18:23.954Z,94838.37
2017-08-16T08:20:52.536Z,94835.27
2017-08-16T08:23:20.307Z,94832.84
2017-08-16T08:25:48.084Z,94834.50
2017-08-16T08:28:15.825Z,94836.86
2017-08-16T08:30:43.545Z,94831.09
2017-08-16T08:33:11.889Z,94836.92
2017-08-16T08:35:39.649Z,94832.08
2017-08-16T08:38:07.366Z,94831.42
2017-08-16T08:40:35.123Z,94828.69
2017-08-16T08:43:02.839Z,94828.79
2017-08-16T08:45:31.691Z,94829.23
2017-08-16T08:47:59.449Z,94836.84
2017-08-16T08:50:27.160Z,94833.55
2017-08-16T08:52:55.613Z,94831.75
2017-08-16T08:55:24.009Z,94828.80
2017-08-16T08:57:51.811Z,94834.63
2017-08-16T09:00:19.578Z,94830.31
2017-08-16T09:02:47.458Z,94834.56
2017-08-16T09:05:15.298Z,94834.19
2017-08-16T09:07:43.737Z,94832.52
2017-08-16T09:10:11.566Z,94829.81
2017-08-16T09:12:39.339Z,94826.51
2017-08-16T09:15:07.166Z,94820.11
2017-08-16T09:17:35.001Z,94823.36
2017-08-16T09:20:02.824Z,94825.11
2017-08-16T09:22:30.705Z,94818.23
2017-08-16T09:25:00.262Z,94812.55
2017-08-16T09:27:29.214Z,94814.41
2017-08-16T09:29:57.114Z,94810.45
2017-08-16T09:32:25.778Z,94811.64
2017-08-16T09:34:53.587Z,94816.13
2017-08-16T09:37:22.962Z,94813.62
2017-08-16T09:39:50.689Z,94807.23
2017-08-16T09:42:18.685Z,94806.18
2017-08-16T09:44:47.614Z,94805.08
2017-08-16T09:47:16.400Z,94801.51
2017-08-16T09:49:44.183Z,94798.33
2017-08-16T09:52:13.640Z,94796.86
2017-08-16T09:54:42.397Z,94797.11
2017-08-16T09:57:10.163Z,94800.33
2017-08-16T09:59:38.335Z,94798.43
2017-08-16T10:02:06.346Z,94795.91
2017-08-16T10:04:34.128Z,94794.06
2017-08-16T10:07:01.895Z,94789.72
2017-08-16T10:09:29.785Z,94783.52
2017-08-16T10:11:57.516Z,94791.08
2017-08-16T10:14:25.341Z,94788.40
2017-08-16T10:16:53.209Z,94783.48
2017-08-16T10:19:21.048Z,94780.45
2017-08-16T10:21:48.861Z,94776.54
2017-08-16T10:24:16.664Z,94771.09
2017-08-16T10:26:44.416Z,94774.76
2017-08-16T10:29:12.230Z,94772.97
2017-08-16T10:31:39.978Z,94771.27
2017-08-16T10:34:07.743Z,94766.95
2017-08-16T10:36:35.508Z,94761.91
2017-08-16T10:39:03.401Z,94764.42
2017-08-16T10:41:31.162Z,94762.09
2017-08-16T10:43:58.855Z,94754.63
2017-08-16T10:46:26.669Z,94755.00
2017-08-16T10:48:54.381Z,94757.20
2017-08-16T10:51:22.282Z,94761.02
2017-08-16T10:53:50.150Z,94752.49
2017-08-16T10:56:17.898Z,94752.98
2017-08-16T10:58:45.646Z,94750.32
2017-08-16T11:01:13.430Z,94752.03
2017-08-16T11:03:41.150Z,94752.68
2017-08-16T11:06:09.042Z,94751.95
2017-08-16T11:08:36.831Z,94746.21
2017-08-16T11:11:04.583Z,94747.39
2017-08-16T11:13:32.387Z,94740.88
2017-08-16T11:16:00.143Z,94740.59
2017-08-16T11:18:27.867Z,94730.20
2017-08-16T11:20:55.584Z,94729.56
2017-08-16T11:23:23.326Z,94728.87
2017-08-16T11:25:51.436Z,94729.98
2017-08-16T11:28:19.143Z,94722.09
2017-08-16T11:30:46.850Z,94721.73
2017-08-16T11:33:14.599Z,94720.69
2017-08-16T11:35:42.288Z,94723.05
2017-08-16T11:38:10.141Z,94720.79
2017-08-16T11:40:38.045Z,94721.33
2017-08-16T11:43:05.816Z,94716.22
2017-08-16T11:45:33.563Z,94724.36
2017-08-16T11:48:01.335Z,94712.77
2017-08-16T11:50:29.110Z,94717.67
2017-08-16T11:52:56.841Z,94713.94
2017-08-16T11:55:24.545Z,94715.19
2017-08-16T11:57:52.337Z,94710.41
2017-08-16T12:00:20.076Z,94706.47
2017-08-16T12:02:47.801Z,94708.21
2017-08-16T12:05:15.563Z,94704.78
2017-08-16T12:07:43.261Z,94706.30
2017-08-16T12:10:11.048Z,94701.36
2017-08-16T12:12:38.752Z,94695.36
2017-08-16T12:15:06.512Z,94695.00
2017-08-16T12:17:34.222Z,94696.33
2017-08-16T12:20:02.028Z,94696.73
2017-08-16T12:22:29.873Z,94691.40
2017-08-16T12:24:57.644Z,94687.85
2017-08-16T12:27:25.463Z,94688.31
2017-08-16T12:29:53.169Z,94677.76
2017-08-16T12:32:20.933Z,94681.58
2017-08-16T12:34:49.198Z,94678.23
2017-08-16T12:37:17.484Z,94679.83
2017-08-16T12:39:45.163Z,94682.69
2017-08-16T12:42:12.929Z,94682.19
2017-08-16T12:44:40.643Z,94684.25
2017-08-16T12:47:08.405Z,94685.16
2017-08-16T12:49:36.114Z,94675.09
2017-08-16T12:52:03.985Z,94677.80
2017-08-16T12:54:31.695Z,94677.27
2017-08-16T12:56:59.482Z,94676.00
2017-08-16T12:59:27.234Z,94674.39
2017-08-16T13:01:54.991Z,94675.03
2017-08-16T13:04:22.728Z,94670.17
2017-08-16T13:06:50.476Z,94671.97
2017-08-16T13:09:18.174Z,94671.02
2017-08-16T13:11:45.895Z,94669.56
2017-08-16T13:14:13.649Z,94666.36
2017-08-16T13:16:41.404Z,94674.24
2017-08-16T13:19:09.244Z,94669.16
2017-08-16T13:21:37.016Z,94665.87
2017-08-16T13:24:04.791Z,94662.00
2017-08-16T13:26:32.528Z,94664.06
2017-08-16T13:29:00.231Z,94661.45
2017-08-16T13:31:28.003Z,94657.87
2017-08-16T13:33:55.713Z,94665.48
2017-08-16T13:36:23.964Z,94669.28
2017-08-16T13:38:51.741Z,94660.06
2017-08-16T13:41:19.462Z,94664.84
2017-08-16T13:43:47.241Z,94664.95
2017-08-16T13:46:14.959Z,94661.48
2017-08-16T13:48:42.792Z,94661.83
2017-08-16T13:51:10.533Z,94662.17
2017-08-16T13:53:38.394Z,94662.13
2017-08-16T13:56:06.162Z,94657.84
2017-08-16T13:58:33.958Z,94663.72
2017-08-16T14:01:01.727Z,94664.96
2017-08-16T14:03:30.103Z,94662.30
2017-08-16T14:05:57.909Z,94659.44
2017-08-16T14:08:25.653Z,94662.51
2017-08-16T14:10:53.425Z,94668.66
2017-08-16T14:13:21.175Z,94669.86
2017-08-16T14:15:48.940Z,94673.50
2017-08-16T14:18:16.749Z,94675.72
2017-08-16T14:20:44.504Z,94680.90
2017-08-16T14:23:12.202Z,94686.38
2017-08-16T14:25:39.957Z,94686.89
2017-08-16T14:28:07.664Z,94683.24
2017-08-16T14:30:36.347Z,94693.45
2017-08-16T14:33:04.092Z,94700.77
2017-08-16T14:35:31.893Z,94698.44
2017-08-16T14:37:59.623Z,94702.31
2017-08-16T14:40:27.358Z,94703.39
2017-08-16T14:42:55.121Z,94703.81
2017-08-16T14:45:23.702Z,94696.10
2017-08-16T14:47:51.532Z,94695.78
2017-08-16T14:50:20.180Z,94683.90
2017-08-16T14:52:48.904Z,94690.67
2017-08-16T14:55:16.714Z,94684.25
2017-08-16T14:57:44.493Z,94681.93
2017-08-16T15:00:12.241Z,94680.10
2017-08-16T15:02:40.220Z,94678.77
2017-08-16T15:05:07.919Z,94680.55
2017-08-16T15:07:35.653Z,94670.89
2017-08-16T15:10:03.473Z,94672.53
2017-08-16T15:12:31.290Z,94678.75
2017-08-16T15:14:59.066Z,94675.38
2017-08-16T15:17:26.821Z,94671.55
2017-08-16T15:19:54.570Z,94669.73
2017-08-16T15:22:22.299Z,94673.36
2017-08-16T15:24:50.063Z,94678.30
2017-08-16T15:27:17.841Z,94678.52
2017-08-16T15:29:45.565Z,94681.47
2017-08-16T15:32:13.428Z,94685.42
2017-08-16T15:34:41.176Z,94679.02
2017-08-16T15:37:08.933Z,94682.80
2017-08-16T15:39:36.712Z,94684.73
2017-08-16T15:42:04.467Z,94683.43
2017-08-16T15:44:32.260Z,94683.83
2017-08-16T15:47:00.120Z,94680.34
2017-08-16T15:49:27.925Z,94680.00
2017-08-16T15:51:55.755Z,94686.93
2017-08-16T15:54:23.519Z,94689.81
2017-08-16T15:56:51.336Z,94691.41
2017-08-16T15:59:19.144Z,94690.78
2017-08-16T16:01:47.948Z,94681.97
2017-08-16T16:04:15.799Z,94684.36
2017-08-16T16:06:43.526Z,94688.61
2017-08-16T16:09:11.309Z,94692.33
2017-08-16T16:11:39.066Z,94692.59
2017-08-16T16:14:06.871Z,94693.02
2017-08-16T16:16:34.643Z,94692.06
2017-08-16T16:19:02.347Z,94698.83
2017-08-16T16:21:30.113Z,94700.60
2017-08-16T16:23:57.929Z,94703.81
2017-08-16T16:26:25.888Z,94703.14
2017-08-16T16:28:53.602Z,94704.38
2017-08-16T16:31:21.356Z,94707.35
2017-08-16T16:33:49.146Z,94707.71
2017-08-16T16:36:17.074Z,94705.31
2017-08-16T16:38:44.855Z,94705.13
2017-08-16T16:41:12.572Z,94702.64
2017-08-16T16:43:40.345Z,94706.56
2017-08-16T16:46:08.085Z,94699.74
2017-08-16T16:48:35.905Z,94705.67
2017-08-16T16:51:03.642Z,94701.97
2017-08-16T16:53:31.463Z,94697.65
2017-08-16T16:55:59.302Z,94697.97
2017-08-16T16:58:27.023Z,94703.27
2017-08-16T17:00:54.782Z,94699.62
2017-08-16T17:03:22.541Z,94706.34
2017-08-16T17:05:50.255Z,94704.05
2017-08-16T17:08:18.053Z,94712.98
2017-08-16T17:10:45.778Z,94707.53
2017-08-16T17:13:13.540Z,94706.78
2017-08-16T17:15:41.249Z,94706.45
2017-08-16T17:18:09.020Z,94713.14
2017-08-16T17:20:36.806Z,94709.30
2017-08-16T17:23:04.573Z,94711.37
2017-08-16T17:25:32.398Z,94710.20
2017-08-16T17:28:00.197Z,94710.89
2017-08-16T17:30:28.093Z,94713.45
2017-08-16T17:32:55.903Z,94716.84
2017-08-16T17:35:23.742Z,94710.28
2017-08-16T17:37:54.181Z,94720.84
2017-08-16T17:40:22.314Z,94719.27
2017-08-16T17:42:50.078Z,94727.99
2017-08-16T17:45:17.861Z,94726.06
2017-08-16T17:47:45.633Z,94728.91
2017-08-16T17:50:13.361Z,94733.16
2017-08-16T17:52:41.302Z,94733.23
2017-08-16T17:55:09.021Z,94740.25
2017-08-16T17:57:37.653Z,94741.17
2017-08-16T18:00:05.476Z,94747.66
2017-08-16T18:02:33.495Z,94742.67
2017-08-16T18:05:01.266Z,94746.27
2017-08-16T18:07:29.049Z,94755.02
2017-08-16T18:09:56.868Z,94748.41
2017-08-16T18:12:24.639Z,94752.38
2017-08-16T18:14:52.820Z,94747.19
2017-08-16T18:17:20.733Z,94759.73
2017-08-16T18:19:48.535Z,94763.43
2017-08-16T18:22:16.260Z,94771.73
2017-08-16T18:24:44.046Z,94772.52
2017-08-16T18:27:11.751Z,94771.47
2017-08-16T18:29:39.510Z,94774.25
2017-08-16T18:32:07.260Z,94776.47
2017-08-16T18:34:35.022Z,94771.19
2017-08-16T18:37:02.857Z,94777.92
2017-08-16T18:39:31.725Z,94780.68
2017-08-16T18:41:59.507Z,94783.95
2017-08-16T18:44:28.465Z,94783.95
2017-08-16T18:46:59.057Z,94783.80
2017-08-16T18:49:27.363Z,94785.77
2017-08-16T18:51:55.136Z,94792.60
2017-08-16T18:54:24.081Z,94794.42
2017-08-16T18:56:53.080Z,94793.73
2017-08-16T18:59:21.264Z,94787.89
2017-08-16T19:01:49.035Z,94789.47
2017-08-16T19:04:16.932Z,94788.60
2017-08-16T19:06:44.739Z,94790.83
2017-08-16T19:09:13.380Z,94791.87
2017-08-16T19:11:41.294Z,94792.28
2017-08-16T19:14:10.264Z,94789.79
2017-08-16T19:16:38.010Z,94782.13
2017-08-16T19:19:06.602Z,94791.63
2017-08-16T19:21:34.700Z,94785.53
2017-08-16T19:24:03.824Z,94787.47
2017-08-16T19:26:31.957Z,94792.87
2017-08-16T19:29:00.183Z,94798.80
2017-08-16T19:31:28.871Z,94797.52
2017-08-16T19:33:57.609Z,94803.67
2017-08-16T19:36:25.558Z,94804.71
2017-08-16T19:38:53.380Z,94803.46
2017-08-16T19:41:21.179Z,94804.78
2017-08-16T19:43:50.832Z,94798.13
2017-08-16T19:46:18.743Z,94795.84
2017-08-16T19:48:46.744Z,94796.05
2017-08-16T19:51:14.717Z,94789.16
2017-08-16T19:53:45.621Z,94792.99
2017-08-16T19:56:13.677Z,94784.09
2017-08-16T19:58:41.487Z,94788.06
2017-08-16T20:01:09.928Z,94791.46
2017-08-16T20:03:37.762Z,94784.32
2017-08-16T20:06:05.648Z,94791.27
2017-08-16T20:08:33.504Z,94790.03
2017-08-16T20:11:01.288Z,94792.91
2017-08-16T20:13:29.776Z,94796.98
2017-08-16T20:15:57.575Z,94800.44
2017-08-16T20:18:25.395Z,94801.23
2017-08-16T20:20:53.243Z,94797.05
2017-08-16T21:15:37.001Z,94794.30
2017-08-16T21:18:04.772Z,94794.61
2017-08-16T21:20:32.583Z,94796.92
2017-08-16T21:38:02.507Z,94797.03
2017-08-16T21:40:30.350Z,94795.92
2017-08-16T21:42:58.052Z,94794.84
2017-08-16T21:45:25.741Z,94796.60
2017-08-16T21:47:53.549Z,94798.87
2017-08-16T21:50:21.297Z,94799.59
2017-08-16T21:52:49.098Z,94797.67
2017-08-16T21:57:56.570Z,94799.19
2017-08-16T22:00:24.275Z,94803.52
2017-08-16T22:02:52.067Z,94804.88
2017-08-16T22:05:19.845Z,94800.30
2017-08-16T22:07:47.615Z,94798.74
2017-08-16T22:10:15.361Z,94795.37
2017-08-16T22:12:43.216Z,94795.41
2017-08-16T22:15:12.204Z,94793.41
2017-08-16T22:17:39.915Z,94794.36
2017-08-16T22:20:07.789Z,94788.57
2017-08-16T22:22:35.495Z,94788.00
2017-08-16T22:25:03.286Z,94790.73
2017-08-16T22:27:31.116Z,94793.41
2017-08-16T22:29:58.837Z,94796.27
2017-08-16T22:32:26.558Z,94791.12
2017-08-16T22:34:54.408Z,94790.09
2017-08-16T22:37:22.158Z,94787.53
2017-08-16T22:39:49.902Z,94790.98
2017-08-16T22:42:17.703Z,94789.91
2017-08-16T22:44:45.499Z,94791.98
2017-08-16T22:47:13.202Z,94789.52
2017-08-16T22:49:40.967Z,94790.57
2017-08-16T22:52:08.685Z,94788.44
2017-08-16T22:54:36.395Z,94782.04
2017-08-16T22:57:04.271Z,94787.45
2017-08-16T22:59:31.988Z,94779.48
2017-08-16T23:01:59.745Z,94787.59
2017-08-16T23:04:29.267Z,94791.36
2017-08-16T23:06:57.012Z,94790.91
2017-08-16T23:09:24.798Z,94801.26
2017-08-16T23:11:52.522Z,94794.70
2017-08-16T23:14:20.234Z,94799.20
2017-08-16T23:16:48.009Z,94792.33
2017-08-16T23:19:15.723Z,94794.66
2017-08-16T23:21:43.425Z,94794.78
2017-08-16T23:24:11.239Z,94793.67
2017-08-16T23:26:38.974Z,94795.73
2017-08-16T23:29:06.780Z,94793.39
2017-08-16T23:31:34.518Z,94793.30
2017-08-16T23:34:02.252Z,94797.06
2017-08-16T23:36:30.022Z,94790.55
2017-08-16T23:38:57.851Z,94789.45
2017-08-16T23:41:25.559Z,94796.02
2017-08-16T23:43:53.287Z,94794.69
2017-08-16T23:46:21.034Z,94791.70
2017-08-16T23:48:48.759Z,94789.34
2017-08-16T23:51:16.466Z,94783.02
2017-08-16T23:53:44.232Z,94782.58
2017-08-16T23:56:11.957Z,94784.64
2017-08-16T23:58:39.736Z,94781.64
